Gasquet, California
Current Conditions -  °F | °C
As of 6:56 PM on Friday 21 Nov 2014 (Local Time) from KCEC Reporting Station
Light Rain Light Rain  
Wind Chill: 14°   Ceiling: 1500
Heat Index: 14°   Visibility: 4mi
Dew Point: 13°   Wind: 28mph
Humidity: 93%   Direction: 170°S
Pressure: 29.79"   Gusts: 36mph
Location:  41.85°N, 123.97°W
Report Text: KCEC 220256Z AUTO 17024G31KT 4SM -RA BR OVC015 14/13 A2979 RMK AO2 PK WND 17034/0218 SLP090 P0002 60004 T01390128 58029
Loading
Personal Weather Stations






























Interactive Weather Map New forecast layout! Learn more

10-Day Weather Forecast

Advertisements
Track Severe Weather on mobile